Time;durP1;ratioP1;P1;durP2;ratioP2;P2;SDS_P1;SDS_P2;PMS_P1;PMS_P2;Temp;Humidity;BMP_temperature;BMP_pressure;BME280_temperature;BME280_humidity;BME280_pressure;Samples;Min_cycle;Max_cycle;Signal;HPM_P1;HPM_P2
2022/08/13 00:02:07;;;;;;;2.00;1.23;;;18.30;74.60;;;;;;5082663;28;20644;-79
2022/08/13 00:04:34;;;;;;;1.23;1.13;;;18.20;76.10;;;;;;5086813;28;20627;-79
2022/08/13 00:07:08;;;;;;;1.10;0.80;;;18.20;77.30;;;;;;5082167;28;20627;-79
2022/08/13 00:09:40;;;;;;;1.10;1.00;;;18.20;79.00;;;;;;5086023;28;20679;-79
2022/08/13 00:14:56;;;;;;;1.30;1.20;;;18.10;81.00;;;;;;5081548;28;20683;-79
2022/08/13 00:17:22;;;;;;;1.30;1.20;;;18.10;83.10;;;;;;5088945;28;21164;-79
2022/08/13 00:19:53;;;;;;;4.00;1.70;;;18.10;83.20;;;;;;5084784;28;20643;-80
2022/08/13 00:22:25;;;;;;;1.23;1.13;;;18.10;83.80;;;;;;5085102;28;20620;-79
2022/08/13 00:24:55;;;;;;;1.00;1.00;;;18.00;83.50;;;;;;5090962;28;20627;-79
2022/08/13 00:27:22;;;;;;;1.30;1.20;;;18.10;83.90;;;;;;5082130;28;20632;-79
2022/08/13 00:29:49;;;;;;;1.60;0.90;;;17.90;84.80;;;;;;5085998;28;20676;-80
2022/08/13 00:32:21;;;;;;;1.30;1.20;;;18.00;86.40;;;;;;5079625;28;20716;-79
2022/08/13 00:34:51;;;;;;;1.17;1.07;;;17.90;88.10;;;;;;5084951;28;20639;-79
2022/08/13 00:37:18;;;;;;;1.10;1.10;;;17.90;88.20;;;;;;5083739;28;20664;-79
2022/08/13 00:39:45;;;;;;;2.20;1.00;;;17.90;88.40;;;;;;5086369;28;20764;-79
2022/08/13 00:42:14;;;;;;;1.90;1.30;;;17.90;88.30;;;;;;5087074;28;20693;-79
2022/08/13 00:44:40;;;;;;;1.27;1.17;;;17.90;89.40;;;;;;5085779;28;20627;-79
2022/08/13 00:49:52;;;;;;;1.60;1.13;;;17.80;90.70;;;;;;5086383;28;20666;-80
2022/08/13 00:52:19;;;;;;;1.07;1.07;;;17.80;91.40;;;;;;5087002;28;20628;-80
2022/08/13 00:54:49;;;;;;;1.73;1.20;;;17.80;91.90;;;;;;5082809;28;20650;-80
2022/08/13 00:57:17;;;;;;;3.37;1.17;;;17.70;92.30;;;;;;5084461;28;20637;-77
2022/08/13 00:59:45;;;;;;;1.40;1.30;;;17.70;92.80;;;;;;5091155;28;20648;-78
2022/08/13 01:02:14;;;;;;;1.40;1.30;;;17.60;93.60;;;;;;5078035;28;20635;-79
2022/08/13 01:04:43;;;;;;;1.40;1.30;;;17.50;94.00;;;;;;5088388;28;20623;-79
2022/08/13 01:07:10;;;;;;;1.30;1.20;;;17.50;94.60;;;;;;5081533;28;20628;-79
2022/08/13 01:09:37;;;;;;;1.20;1.20;;;17.50;95.10;;;;;;5085457;28;20675;-79
2022/08/13 01:12:09;;;;;;;1.03;1.03;;;17.40;95.30;;;;;;5087873;28;21041;-79
2022/08/13 01:14:39;;;;;;;1.60;1.50;;;17.30;96.10;;;;;;5084002;28;21216;-79
2022/08/13 01:17:07;;;;;;;3.47;1.40;;;17.20;96.50;;;;;;5084129;28;20624;-80
2022/08/13 01:19:34;;;;;;;1.57;1.10;;;17.20;97.20;;;;;;5086306;28;20651;-79
2022/08/13 01:22:04;;;;;;;1.33;1.20;;;17.20;97.60;;;;;;5084586;28;20634;-79
2022/08/13 01:24:31;;;;;;;1.30;1.23;;;17.20;97.90;;;;;;5078587;28;20644;-79
2022/08/13 01:26:59;;;;;;;1.50;1.40;;;17.10;98.40;;;;;;5082782;28;20676;-79
2022/08/13 01:29:26;;;;;;;2.90;1.40;;;17.20;98.40;;;;;;5083151;28;20687;-79
2022/08/13 01:31:54;;;;;;;0.90;0.90;;;17.10;98.70;;;;;;5085318;28;20627;-78
2022/08/13 01:34:23;;;;;;;1.33;1.23;;;17.00;99.20;;;;;;5085299;28;20635;-79
2022/08/13 01:36:51;;;;;;;0.90;0.90;;;17.10;99.10;;;;;;5084967;28;21238;-78
2022/08/13 01:39:19;;;;;;;1.57;1.40;;;17.10;99.40;;;;;;5086674;28;20661;-79
2022/08/13 01:41:47;;;;;;;1.60;1.27;;;17.00;99.40;;;;;;5085429;28;20631;-79
2022/08/13 01:44:15;;;;;;;1.70;1.27;;;17.00;99.90;;;;;;5086665;28;20659;-79
2022/08/13 01:52:26;;;;;;;1.93;1.43;;;17.00;99.90;;;;;;5019772;28;20652;-79
2022/08/13 01:54:54;;;;;;;1.50;1.40;;;17.00;99.90;;;;;;5023254;28;21015;-79
2022/08/13 01:57:22;;;;;;;2.80;1.27;;;17.00;99.90;;;;;;5048760;28;20996;-79
2022/08/13 01:59:49;;;;;;;1.73;1.63;;;17.00;99.90;;;;;;5090395;28;20705;-79
2022/08/13 02:02:15;;;;;;;1.93;1.50;;;17.00;99.90;;;;;;5080370;28;20612;-79
2022/08/13 02:04:44;;;;;;;1.50;1.40;;;17.00;99.90;;;;;;5085246;28;20619;-80
2022/08/13 02:07:14;;;;;;;1.67;1.57;;;17.00;99.90;;;;;;5080436;28;20628;-79
2022/08/13 02:09:42;;;;;;;2.30;2.10;;;17.00;99.90;;;;;;5085218;28;20682;-79
2022/08/13 02:12:11;;;;;;;2.23;1.17;;;17.00;99.90;;;;;;5088992;28;21018;-79
2022/08/13 02:14:42;;;;;;;2.23;1.50;;;17.00;99.90;;;;;;5084187;28;20623;-79
2022/08/13 02:17:24;;;;;;;2.13;1.90;;;17.00;99.90;;;;;;5082524;28;20723;-79
2022/08/13 02:19:53;;;;;;;1.50;1.40;;;17.00;99.90;;;;;;5082368;28;20639;-79
2022/08/13 02:22:20;;;;;;;1.53;1.43;;;17.00;99.90;;;;;;5083132;28;20636;-79
2022/08/13 02:24:52;;;;;;;2.30;1.40;;;16.90;99.90;;;;;;5086208;28;20631;-78
2022/08/13 02:27:21;;;;;;;4.30;1.60;;;16.90;99.90;;;;;;5082127;28;20715;-78
2022/08/13 02:29:48;;;;;;;1.60;1.50;;;16.90;99.90;;;;;;5084231;28;20748;-79
2022/08/13 02:32:16;;;;;;;1.30;1.30;;;16.90;99.90;;;;;;5084883;28;20628;-79
2022/08/13 02:34:44;;;;;;;2.30;1.57;;;16.80;99.90;;;;;;5086578;28;21205;-79
2022/08/13 02:37:12;;;;;;;3.83;1.37;;;16.80;99.90;;;;;;5083854;28;20685;-78
2022/08/13 02:39:38;;;;;;;1.43;1.30;;;16.80;99.90;;;;;;5086202;28;20650;-79
2022/08/13 02:42:05;;;;;;;1.60;1.50;;;16.70;99.90;;;;;;5083654;28;21178;-78
2022/08/13 02:44:33;;;;;;;1.63;1.53;;;16.70;99.90;;;;;;5079124;28;20634;-78
2022/08/13 02:47:01;;;;;;;1.60;1.50;;;16.60;99.90;;;;;;5087690;28;20631;-78
2022/08/13 02:49:28;;;;;;;1.63;1.53;;;16.60;99.90;;;;;;5082967;28;20763;-78
2022/08/13 02:51:54;;;;;;;2.10;1.57;;;16.60;99.90;;;;;;5087264;28;21398;-79
2022/08/13 02:54:21;;;;;;;4.00;1.20;;;16.50;99.90;;;;;;5082554;28;21183;-78
2022/08/13 02:56:49;;;;;;;1.37;1.27;;;16.50;99.90;;;;;;5083306;28;20658;-78
2022/08/13 02:59:16;;;;;;;1.73;1.50;;;16.50;99.90;;;;;;5085416;28;20895;-78
2022/08/13 03:01:46;;;;;;;2.10;1.90;;;16.50;99.90;;;;;;5086828;28;20947;-79
2022/08/13 03:04:15;;;;;;;1.63;1.50;;;16.40;99.90;;;;;;5084804;28;20639;-79
2022/08/13 03:06:44;;;;;;;2.93;1.67;;;16.40;99.90;;;;;;5085917;28;20618;-79
2022/08/13 03:09:11;;;;;;;1.40;1.30;;;16.30;99.90;;;;;;5084982;28;20719;-79
2022/08/13 03:11:38;;;;;;;1.70;1.40;;;16.40;99.90;;;;;;5088596;28;20622;-79
2022/08/13 03:14:06;;;;;;;1.33;1.23;;;16.30;99.90;;;;;;5084973;28;20632;-79
2022/08/13 03:16:34;;;;;;;1.67;1.57;;;16.30;99.90;;;;;;5087835;28;20647;-79
2022/08/13 03:19:03;;;;;;;1.60;1.40;;;16.30;99.90;;;;;;5065929;28;20743;-79
2022/08/13 03:21:32;;;;;;;2.10;1.30;;;16.30;99.90;;;;;;5084377;28;20636;-79
2022/08/13 03:24:00;;;;;;;1.63;1.53;;;16.30;99.90;;;;;;5079789;28;20731;-79
2022/08/13 03:26:27;;;;;;;2.97;1.53;;;16.20;99.90;;;;;;5074059;28;20643;-79
2022/08/13 03:28:54;;;;;;;1.60;1.50;;;16.20;99.90;;;;;;5084239;28;21012;-79
2022/08/13 03:31:22;;;;;;;2.17;1.50;;;16.10;99.90;;;;;;5085262;28;20639;-79
2022/08/13 03:33:49;;;;;;;1.60;1.50;;;16.10;99.90;;;;;;5095705;28;20615;-79
2022/08/13 03:36:17;;;;;;;2.40;1.80;;;16.10;99.90;;;;;;5082095;28;21275;-79
2022/08/13 03:38:45;;;;;;;1.80;1.70;;;16.10;99.90;;;;;;5087946;28;20626;-79
2022/08/13 03:41:15;;;;;;;2.53;1.90;;;16.10;99.90;;;;;;5086212;28;21000;-79
2022/08/13 03:43:44;;;;;;;1.60;1.50;;;16.10;99.90;;;;;;5091689;28;20694;-79
2022/08/13 03:46:12;;;;;;;1.43;1.40;;;16.10;99.90;;;;;;5088742;28;20649;-78
2022/08/13 03:48:40;;;;;;;3.70;1.57;;;16.10;99.90;;;;;;5080791;28;20635;-79
2022/08/13 03:51:07;;;;;;;2.30;1.80;;;16.10;99.90;;;;;;5089906;28;20665;-79
2022/08/13 03:53:36;;;;;;;1.57;1.47;;;16.00;99.90;;;;;;5091333;28;20634;-79
2022/08/13 03:56:04;;;;;;;1.70;1.60;;;16.00;99.90;;;;;;5085232;28;20995;-78
2022/08/13 03:58:31;;;;;;;3.80;1.60;;;16.00;99.90;;;;;;5089271;28;20635;-78
2022/08/13 04:00:58;;;;;;;1.43;1.30;;;16.00;99.90;;;;;;5086401;28;20624;-78
2022/08/13 04:03:28;;;;;;;1.80;1.70;;;15.90;99.90;;;;;;5085717;28;20644;-78
2022/08/13 04:05:58;;;;;;;2.07;1.93;;;15.90;99.90;;;;;;5090956;28;20615;-78
2022/08/13 04:08:27;;;;;;;1.70;1.60;;;15.90;99.90;;;;;;5087704;28;20643;-78
2022/08/13 04:10:56;;;;;;;1.77;1.67;;;15.90;99.90;;;;;;5087643;28;20667;-78
2022/08/13 04:13:24;;;;;;;1.67;1.57;;;15.80;99.90;;;;;;5083114;28;20690;-78
2022/08/13 04:15:51;;;;;;;1.63;1.53;;;15.80;99.90;;;;;;5085977;28;20652;-78
2022/08/13 04:18:18;;;;;;;1.63;1.53;;;15.80;99.90;;;;;;5083219;28;20639;-78
2022/08/13 04:20:54;;;;;;;1.60;1.50;;;15.80;99.90;;;;;;5089693;28;20670;-78
2022/08/13 04:23:22;;;;;;;1.97;1.83;;;15.80;99.90;;;;;;5082361;28;21031;-78
2022/08/13 04:25:50;;;;;;;3.47;1.60;;;15.80;99.90;;;;;;5088870;28;20635;-78
2022/08/13 04:28:21;;;;;;;1.80;1.70;;;15.80;99.90;;;;;;5079348;28;20709;-78
2022/08/13 04:30:48;;;;;;;1.90;1.77;;;15.80;99.90;;;;;;5085699;28;20766;-78
2022/08/13 04:33:17;;;;;;;2.37;1.80;;;15.80;99.90;;;;;;5083315;28;20633;-80
2022/08/13 04:35:45;;;;;;;2.03;1.87;;;15.80;99.90;;;;;;5076244;28;20736;-80
2022/08/13 04:38:13;;;;;;;1.93;1.70;;;15.80;99.90;;;;;;5075421;28;20731;-80
2022/08/13 04:40:42;;;;;;;2.70;1.80;;;15.70;99.90;;;;;;5076043;28;20645;-80
2022/08/13 04:43:11;;;;;;;1.90;1.77;;;15.70;99.90;;;;;;5075278;28;21709;-80
2022/08/13 04:45:40;;;;;;;1.57;1.47;;;15.80;99.90;;;;;;5093205;28;21169;-79
2022/08/13 04:48:10;;;;;;;1.50;1.40;;;15.80;99.90;;;;;;5073936;28;20652;-79
2022/08/13 04:50:38;;;;;;;2.70;1.60;;;15.80;99.90;;;;;;5071223;28;20996;-79
2022/08/13 04:53:06;;;;;;;2.37;2.00;;;15.80;99.90;;;;;;5086350;28;20621;-79
2022/08/13 04:55:33;;;;;;;2.53;1.57;;;15.80;99.90;;;;;;5087378;28;20718;-79
2022/08/13 04:58:00;;;;;;;1.93;1.83;;;15.70;99.90;;;;;;5082033;28;20628;-79
2022/08/13 05:00:32;;;;;;;3.00;1.77;;;15.80;99.90;;;;;;5072757;28;20662;-79
2022/08/13 05:03:07;;;;;;;2.37;2.17;;;15.80;99.90;;;;;;5077667;28;20619;-79
2022/08/13 05:05:35;;;;;;;2.00;1.90;;;15.90;99.90;;;;;;5087969;28;20622;-79
2022/08/13 05:08:02;;;;;;;2.20;2.10;;;15.90;99.90;;;;;;5082929;28;20689;-80
2022/08/13 05:10:30;;;;;;;1.93;1.80;;;16.00;99.90;;;;;;5084708;28;20691;-79
2022/08/13 05:12:58;;;;;;;1.87;1.73;;;16.00;99.90;;;;;;5093418;28;20638;-79
2022/08/13 05:15:25;;;;;;;3.73;1.67;;;16.00;99.90;;;;;;5085199;28;20639;-79
2022/08/13 05:17:51;;;;;;;1.80;1.70;;;16.10;99.90;;;;;;5081099;28;20636;-80
2022/08/13 05:20:20;;;;;;;1.73;1.63;;;16.10;99.90;;;;;;5087195;28;20756;-79
2022/08/13 05:22:47;;;;;;;1.60;1.50;;;16.20;99.90;;;;;;5076119;28;21224;-79
2022/08/13 05:25:14;;;;;;;2.20;2.00;;;16.30;99.90;;;;;;5086327;28;20628;-80
2022/08/13 05:27:44;;;;;;;2.60;2.30;;;16.40;99.90;;;;;;5079838;28;20652;-79
2022/08/13 05:30:12;;;;;;;2.70;2.20;;;16.40;99.90;;;;;;5077735;28;20665;-79
2022/08/13 05:32:39;;;;;;;5.63;2.00;;;16.40;99.90;;;;;;5089349;28;20623;-79
2022/08/13 05:35:10;;;;;;;1.90;1.80;;;16.50;99.90;;;;;;5083511;28;20642;-80
2022/08/13 05:37:39;;;;;;;3.77;2.60;;;16.50;99.90;;;;;;5088231;28;20964;-79
2022/08/13 05:40:07;;;;;;;4.67;2.60;;;16.50;99.90;;;;;;5083356;28;20656;-80
2022/08/13 05:42:39;;;;;;;2.87;2.67;;;16.60;99.90;;;;;;5087339;28;21142;-80
2022/08/13 05:45:07;;;;;;;3.27;2.73;;;16.70;99.90;;;;;;5080019;28;21002;-80
2022/08/13 05:47:35;;;;;;;3.10;2.80;;;16.70;99.90;;;;;;5084696;28;20969;-80
2022/08/13 05:50:07;;;;;;;4.60;3.40;;;16.70;99.90;;;;;;5081800;28;20711;-80
2022/08/13 05:52:34;;;;;;;3.30;2.87;;;16.90;99.90;;;;;;5089097;28;20623;-80
2022/08/13 05:55:09;;;;;;;3.60;3.30;;;17.00;99.90;;;;;;5082377;28;20643;-80
2022/08/13 05:57:36;;;;;;;4.27;3.90;;;17.10;99.90;;;;;;5083387;28;20622;-79
2022/08/13 06:05:32;;;;;;;4.43;3.17;;;17.20;99.90;;;;;;5086640;28;20619;-79
2022/08/13 06:07:59;;;;;;;3.50;2.90;;;17.30;99.90;;;;;;5079267;28;21206;-79
2022/08/13 06:10:27;;;;;;;3.87;3.00;;;17.50;99.90;;;;;;5078225;28;20673;-79
2022/08/13 06:12:54;;;;;;;6.33;3.13;;;17.60;99.90;;;;;;5081616;28;21224;-78
2022/08/13 06:15:22;;;;;;;4.90;2.90;;;17.60;99.90;;;;;;5086568;28;21230;-79
2022/08/13 06:17:50;;;;;;;3.90;3.50;;;17.70;99.90;;;;;;5080575;28;20635;-79
2022/08/13 06:20:18;;;;;;;2.93;2.73;;;17.90;99.90;;;;;;5093882;28;21187;-79
2022/08/13 06:22:47;;;;;;;3.43;2.80;;;18.00;99.90;;;;;;5069430;28;20625;-79
2022/08/13 06:25:14;;;;;;;3.00;2.63;;;18.10;99.90;;;;;;5085715;28;20629;-79
2022/08/13 06:27:45;;;;;;;3.20;3.00;;;18.30;99.90;;;;;;5085053;28;20638;-79
2022/08/13 06:30:18;;;;;;;5.10;2.93;;;18.40;99.90;;;;;;5081971;28;20744;-79
2022/08/13 06:32:45;;;;;;;2.40;2.20;;;18.50;99.90;;;;;;5089487;28;20627;-79
2022/08/13 06:35:13;;;;;;;2.00;1.90;;;18.60;99.90;;;;;;5086048;28;20976;-79
2022/08/13 06:37:42;;;;;;;2.00;1.90;;;18.70;99.90;;;;;;5091703;28;20705;-79
2022/08/13 06:40:12;;;;;;;2.20;2.00;;;18.80;99.90;;;;;;5083703;28;20661;-79
2022/08/13 06:42:44;;;;;;;3.27;1.50;;;19.00;99.90;;;;;;5092579;28;21044;-79
2022/08/13 06:45:11;;;;;;;1.90;1.80;;;19.10;99.90;;;;;;5085207;28;20619;-79
2022/08/13 06:47:39;;;;;;;1.73;1.63;;;19.20;99.90;;;;;;5088523;28;20614;-79
2022/08/13 06:50:10;;;;;;;5.10;1.80;;;19.40;99.90;;;;;;5086460;28;21130;-79
2022/08/13 06:52:39;;;;;;;5.10;1.83;;;19.50;99.90;;;;;;5093385;28;20622;-78
2022/08/13 06:55:07;;;;;;;3.50;2.03;;;19.60;99.50;;;;;;5085956;28;20614;-79
2022/08/13 06:57:36;;;;;;;2.03;1.93;;;19.70;99.00;;;;;;5086643;28;20627;-79
2022/08/13 07:00:11;;;;;;;2.40;2.20;;;19.80;98.10;;;;;;5089710;28;21068;-79
2022/08/13 07:02:40;;;;;;;2.33;2.13;;;20.00;97.50;;;;;;5087383;28;20651;-79
2022/08/13 07:05:08;;;;;;;3.77;1.53;;;20.10;97.10;;;;;;5086620;28;20628;-79
2022/08/13 07:07:35;;;;;;;2.90;2.10;;;20.20;96.80;;;;;;5087768;28;20622;-79
2022/08/13 07:10:04;;;;;;;3.30;1.97;;;20.30;96.30;;;;;;5085702;28;20739;-79
2022/08/13 07:12:33;;;;;;;2.27;2.00;;;20.30;95.80;;;;;;5093176;28;21026;-79
2022/08/13 07:14:59;;;;;;;10.53;2.20;;;20.40;95.70;;;;;;5063805;28;21013;-78
2022/08/13 07:17:29;;;;;;;1.77;1.60;;;20.40;95.60;;;;;;5087708;28;21060;-78
2022/08/13 07:19:56;;;;;;;2.00;1.90;;;20.60;95.90;;;;;;5087508;28;20648;-78
2022/08/13 07:22:22;;;;;;;3.00;1.90;;;20.70;95.50;;;;;;5081708;28;20677;-78
2022/08/13 07:24:50;;;;;;;7.90;2.13;;;20.90;94.90;;;;;;5084017;28;20694;-78
2022/08/13 07:27:17;;;;;;;2.00;1.90;;;20.90;94.40;;;;;;5083525;28;20735;-78
2022/08/13 07:29:47;;;;;;;1.80;1.70;;;21.00;94.10;;;;;;5087004;28;21009;-78
2022/08/13 07:32:15;;;;;;;4.50;2.03;;;21.10;94.00;;;;;;5090671;28;20609;-78
2022/08/13 07:34:43;;;;;;;3.70;1.93;;;21.20;93.70;;;;;;5086141;28;20719;-79
2022/08/13 07:37:09;;;;;;;3.37;2.17;;;21.30;93.50;;;;;;5083040;28;20699;-78
2022/08/13 07:39:37;;;;;;;1.67;1.57;;;21.40;93.10;;;;;;5084788;28;21016;-78
2022/08/13 07:42:05;;;;;;;2.73;1.70;;;21.50;93.00;;;;;;5080262;28;20660;-78
2022/08/13 07:44:32;;;;;;;2.10;2.00;;;21.60;92.90;;;;;;5079614;28;20675;-78
2022/08/13 07:47:00;;;;;;;2.60;1.70;;;21.70;92.70;;;;;;5089469;28;20632;-78
2022/08/13 07:49:28;;;;;;;3.57;2.00;;;21.80;92.30;;;;;;5084709;28;20660;-78
2022/08/13 07:51:56;;;;;;;4.90;2.37;;;22.00;92.50;;;;;;5083159;28;20620;-78
2022/08/13 07:54:23;;;;;;;1.80;1.70;;;22.10;91.60;;;;;;5081706;28;20659;-78
2022/08/13 07:56:51;;;;;;;1.53;1.43;;;22.10;91.80;;;;;;5082144;28;20692;-78
2022/08/13 07:59:19;;;;;;;1.90;1.80;;;22.20;91.50;;;;;;5083589;28;20656;-78
2022/08/13 08:01:48;;;;;;;2.33;2.07;;;22.30;90.80;;;;;;5079702;28;20656;-78
2022/08/13 08:04:17;;;;;;;2.37;1.70;;;22.40;90.80;;;;;;5076374;28;20638;-78
2022/08/13 08:06:45;;;;;;;2.67;1.80;;;22.50;91.00;;;;;;5085645;28;20627;-78
2022/08/13 08:09:17;;;;;;;3.33;1.90;;;22.60;90.50;;;;;;5068628;28;20746;-78
2022/08/13 08:14:30;;;;;;;4.80;1.50;;;22.80;90.30;;;;;;5080079;28;20752;-78
2022/08/13 08:16:57;;;;;;;2.47;2.20;;;22.90;90.10;;;;;;5077592;28;20690;-78
2022/08/13 08:19:24;;;;;;;2.37;1.70;;;23.00;90.10;;;;;;5084632;28;20656;-78
2022/08/13 08:21:52;;;;;;;4.40;2.20;;;23.20;89.60;;;;;;5077737;28;20695;-87
2022/08/13 08:24:20;;;;;;;2.10;1.90;;;23.30;88.70;;;;;;5082274;28;20620;-87
2022/08/13 08:26:48;;;;;;;1.80;1.70;;;23.20;86.70;;;;;;5081049;28;20710;-86
2022/08/13 08:29:16;;;;;;;3.10;2.03;;;22.90;85.90;;;;;;5086032;28;20687;-88
2022/08/13 08:31:44;;;;;;;3.70;2.53;;;23.30;86.00;;;;;;5086250;28;20632;-89
2022/08/13 08:34:11;;;;;;;1.80;1.70;;;23.50;86.70;;;;;;5089353;28;20973;-89
2022/08/13 08:36:41;;;;;;;3.10;1.90;;;23.70;87.00;;;;;;5092198;28;20615;-89
2022/08/13 08:44:42;;;;;;;5.80;2.10;;;23.50;82.70;;;;;;5084729;28;20611;-89
2022/08/13 08:47:10;;;;;;;1.90;1.70;;;23.40;81.30;;;;;;5083299;28;20631;-87
2022/08/13 08:49:39;;;;;;;3.30;2.03;;;23.50;81.20;;;;;;5083545;28;20678;-88
2022/08/13 08:52:09;;;;;;;2.60;1.80;;;23.70;82.30;;;;;;5087976;28;21334;-87
2022/08/13 08:54:37;;;;;;;2.33;2.00;;;23.40;81.10;;;;;;5105488;28;20695;-87
2022/08/13 08:57:06;;;;;;;1.67;1.57;;;24.00;83.20;;;;;;5106137;28;20624;-87
2022/08/13 08:59:39;;;;;;;5.13;1.70;;;24.60;80.80;;;;;;5111766;28;20679;-88
2022/08/13 09:02:18;;;;;;;1.60;1.50;;;25.10;78.30;;;;;;5107349;28;20712;-86
2022/08/13 09:04:54;;;;;;;1.90;1.73;;;25.30;77.30;;;;;;5102203;28;20665;-90
2022/08/13 09:07:25;;;;;;;2.00;1.73;;;25.70;75.00;;;;;;5107974;28;20635;-88
2022/08/13 09:09:55;;;;;;;2.00;1.70;;;25.40;74.00;;;;;;5113971;28;20948;-87
2022/08/13 09:12:25;;;;;;;2.17;1.53;;;25.50;74.80;;;;;;5109752;28;20639;-88
2022/08/13 09:14:52;;;;;;;2.40;1.83;;;25.80;75.30;;;;;;5107221;28;21129;-87
2022/08/13 09:17:20;;;;;;;1.70;1.60;;;25.90;74.20;;;;;;5104940;28;20622;-89
2022/08/13 09:19:51;;;;;;;1.90;1.80;;;26.30;72.40;;;;;;5094404;28;20646;-87
2022/08/13 09:22:22;;;;;;;2.50;2.00;;;25.90;72.00;;;;;;5087577;28;21253;-87
2022/08/13 09:24:49;;;;;;;2.00;1.90;;;26.00;71.70;;;;;;5084003;28;20723;-87
2022/08/13 09:27:17;;;;;;;1.97;1.77;;;26.00;72.10;;;;;;5092008;28;20635;-87
2022/08/13 09:29:50;;;;;;;1.97;1.70;;;26.30;72.60;;;;;;5089978;28;20652;-88
2022/08/13 09:32:18;;;;;;;2.40;1.90;;;26.90;72.10;;;;;;5098025;28;20815;-89
2022/08/13 09:34:45;;;;;;;2.20;2.00;;;27.10;70.30;;;;;;5094467;28;20630;-88
2022/08/13 09:37:13;;;;;;;2.53;1.87;;;27.10;69.00;;;;;;5091790;28;20613;-88
2022/08/13 09:39:50;;;;;;;3.30;1.80;;;26.80;66.60;;;;;;5086196;28;21226;-88
2022/08/13 09:42:24;;;;;;;1.93;1.83;;;27.20;66.50;;;;;;5082672;28;20764;-89
2022/08/13 09:44:54;;;;;;;1.97;1.87;;;27.10;66.70;;;;;;5082570;28;20647;-88
2022/08/13 09:47:22;;;;;;;4.10;1.87;;;26.80;65.60;;;;;;5085205;28;21036;-85
2022/08/13 09:49:50;;;;;;;2.93;1.93;;;26.70;65.20;;;;;;5080776;28;20725;-88
2022/08/13 09:52:19;;;;;;;2.57;1.80;;;26.00;64.40;;;;;;5094558;28;20620;-88
2022/08/13 09:54:45;;;;;;;12.33;1.87;;;26.00;65.50;;;;;;5087304;28;21043;-88
2022/08/13 09:57:12;;;;;;;2.27;1.73;;;25.90;65.10;;;;;;5085329;28;20742;-88
2022/08/13 09:59:39;;;;;;;1.80;1.70;;;26.10;65.00;;;;;;5084802;28;20983;-84
2022/08/13 10:02:12;;;;;;;1.70;1.60;;;26.30;65.00;;;;;;5083736;28;20782;-85
2022/08/13 10:04:41;;;;;;;2.30;2.10;;;26.40;64.90;;;;;;5087425;28;20797;-84
2022/08/13 10:07:08;;;;;;;1.80;1.70;;;26.40;63.50;;;;;;5082652;28;20711;-84
2022/08/13 10:09:36;;;;;;;1.80;1.70;;;26.70;63.40;;;;;;5081082;28;20664;-85
2022/08/13 10:12:06;;;;;;;2.07;1.80;;;26.70;63.50;;;;;;5078530;28;20625;-79
2022/08/13 10:14:33;;;;;;;2.13;1.50;;;26.80;64.00;;;;;;5076805;28;20667;-79
2022/08/13 10:17:01;;;;;;;3.30;1.70;;;27.10;61.00;;;;;;5086545;28;20617;-79
2022/08/13 10:19:31;;;;;;;1.90;1.80;;;27.10;60.70;;;;;;5087453;28;20652;-79
2022/08/13 10:21:58;;;;;;;1.93;1.83;;;27.30;61.60;;;;;;5082626;28;20671;-79
2022/08/13 10:24:25;;;;;;;2.83;1.97;;;27.50;60.20;;;;;;5080729;28;20647;-79
2022/08/13 10:26:51;;;;;;;1.83;1.60;;;27.60;59.10;;;;;;5084277;28;20641;-79
2022/08/13 10:29:18;;;;;;;4.53;1.83;;;27.70;59.00;;;;;;5089811;28;20658;-79
2022/08/13 10:31:45;;;;;;;3.00;1.90;;;27.80;56.90;;;;;;5087445;28;20635;-80
2022/08/13 10:34:12;;;;;;;2.10;1.23;;;27.90;57.10;;;;;;5085935;28;20635;-79
2022/08/13 10:36:42;;;;;;;3.17;1.70;;;28.10;57.20;;;;;;5084100;28;20642;-79
2022/08/13 10:39:09;;;;;;;2.50;2.00;;;28.40;57.60;;;;;;5090152;28;20660;-79
2022/08/13 10:41:36;;;;;;;2.50;1.90;;;28.70;56.70;;;;;;5093429;28;21321;-79
2022/08/13 10:44:03;;;;;;;4.53;1.97;;;28.90;55.90;;;;;;5088048;28;21169;-79
2022/08/13 10:46:31;;;;;;;1.70;1.60;;;29.20;55.40;;;;;;5089847;28;20711;-79
2022/08/13 10:48:58;;;;;;;4.70;1.83;;;29.50;54.80;;;;;;5080535;28;20666;-79
2022/08/13 10:51:26;;;;;;;1.70;1.60;;;29.70;52.60;;;;;;5087231;28;20631;-79
2022/08/13 10:53:58;;;;;;;1.60;1.50;;;30.00;51.80;;;;;;5088052;28;21190;-79
2022/08/13 10:56:27;;;;;;;1.87;1.73;;;30.30;50.90;;;;;;5087879;28;20700;-79
2022/08/13 10:58:54;;;;;;;1.87;1.73;;;30.60;50.00;;;;;;5083765;28;21616;-79
2022/08/13 11:01:23;;;;;;;3.93;1.47;;;30.90;49.30;;;;;;5086853;28;20705;-79
2022/08/13 11:03:51;;;;;;;2.13;1.60;;;31.20;48.20;;;;;;5085830;28;20723;-79
2022/08/13 11:06:18;;;;;;;3.50;2.00;;;31.50;48.20;;;;;;5089118;28;20694;-80
2022/08/13 11:08:47;;;;;;;2.00;1.80;;;31.80;47.40;;;;;;5092574;28;21381;-79
2022/08/13 11:11:15;;;;;;;1.93;1.83;;;31.80;46.80;;;;;;5083452;28;20698;-79
2022/08/13 11:13:42;;;;;;;3.53;1.77;;;32.00;46.30;;;;;;5092872;28;20662;-80
2022/08/13 11:16:56;;;;;;;5.60;1.77;;;32.00;45.10;;;;;;5086567;28;20639;-79
2022/08/13 11:18:57;;;;;;;2.07;1.77;;;31.80;45.60;;;;;;5088568;28;20694;-80
2022/08/13 11:21:24;;;;;;;2.10;1.90;;;32.00;45.40;;;;;;5091565;28;20632;-79
2022/08/13 11:23:51;;;;;;;3.27;2.07;;;32.00;44.60;;;;;;5078591;28;20629;-79
2022/08/13 11:26:20;;;;;;;2.77;1.63;;;31.80;44.90;;;;;;5083558;28;21240;-79
2022/08/13 11:28:49;;;;;;;2.50;1.70;;;31.50;44.90;;;;;;5087698;28;20655;-78
2022/08/13 11:31:16;;;;;;;3.80;1.70;;;31.40;44.60;;;;;;5084070;28;20624;-79
2022/08/13 11:33:42;;;;;;;2.63;1.60;;;31.60;44.40;;;;;;5092888;28;20622;-79
2022/08/13 11:36:09;;;;;;;2.13;2.03;;;31.80;44.00;;;;;;5084926;28;20635;-80
2022/08/13 11:38:36;;;;;;;3.73;2.00;;;32.30;44.20;;;;;;5087349;28;20703;-80
2022/08/13 11:41:03;;;;;;;2.50;1.60;;;32.60;43.10;;;;;;5085786;28;21154;-79
2022/08/13 11:43:32;;;;;;;3.40;2.20;;;32.80;43.20;;;;;;5087803;28;20624;-79
2022/08/13 11:45:59;;;;;;;2.43;1.67;;;32.80;42.70;;;;;;5087456;28;20736;-79
2022/08/13 11:48:26;;;;;;;3.30;2.03;;;33.10;42.70;;;;;;5082590;28;20628;-79
2022/08/13 11:50:55;;;;;;;2.03;1.90;;;33.30;41.90;;;;;;5078662;28;20662;-79
2022/08/13 11:53:23;;;;;;;1.63;1.53;;;33.50;41.40;;;;;;5088391;28;20628;-79
2022/08/13 11:55:50;;;;;;;2.00;1.80;;;33.80;40.60;;;;;;5087701;28;20626;-80
2022/08/13 11:58:16;;;;;;;1.83;1.60;;;33.90;40.10;;;;;;5083462;28;20640;-80
2022/08/13 12:00:45;;;;;;;2.13;1.80;;;34.20;39.80;;;;;;5077436;28;20667;-80
2022/08/13 12:06:34;;;;;;;2.03;1.90;;;35.10;40.40;;;;;;5062949;28;20623;-79
2022/08/13 12:09:02;;;;;;;3.53;1.63;;;35.60;38.90;;;;;;5077758;28;20655;-80
2022/08/13 12:11:29;;;;;;;2.20;1.37;;;36.00;38.60;;;;;;5083144;28;20743;-80
2022/08/13 12:13:56;;;;;;;1.70;1.60;;;36.20;37.00;;;;;;5081200;28;20638;-79
2022/08/13 12:16:25;;;;;;;1.97;1.77;;;36.20;37.40;;;;;;5078316;28;20733;-80
2022/08/13 12:18:51;;;;;;;1.80;1.33;;;36.40;35.70;;;;;;5086247;28;21319;-80
2022/08/13 12:21:20;;;;;;;2.50;1.70;;;36.70;35.60;;;;;;5075604;28;20198;-80
2022/08/13 12:23:47;;;;;;;2.67;1.90;;;36.90;35.10;;;;;;5073903;28;20218;-80
2022/08/13 12:26:14;;;;;;;2.57;1.30;;;37.10;34.60;;;;;;5091373;28;20226;-79
2022/08/13 12:28:41;;;;;;;7.15;1.63;;;37.50;34.20;;;;;;5090952;28;20287;-78
2022/08/13 12:31:08;;;;;;;1.40;1.30;;;37.20;32.50;;;;;;5074710;28;20206;-78
2022/08/13 12:33:38;;;;;;;1.90;1.80;;;36.40;32.70;;;;;;5080500;28;20205;-78
2022/08/13 12:36:05;;;;;;;5.20;1.80;;;35.60;33.10;;;;;;5083220;28;20240;-79
2022/08/13 12:38:32;;;;;;;2.10;1.70;;;35.40;34.00;;;;;;5079652;28;20198;-78
2022/08/13 12:41:00;;;;;;;2.27;1.57;;;35.30;34.00;;;;;;5082202;28;20209;-79
2022/08/13 12:43:28;;;;;;;2.03;1.53;;;35.50;33.60;;;;;;5077786;28;20221;-79
2022/08/13 12:45:54;;;;;;;2.60;1.57;;;35.70;34.20;;;;;;5073939;28;20663;-78
2022/08/13 12:48:21;;;;;;;1.50;1.40;;;36.00;34.10;;;;;;5070589;28;20202;-79
2022/08/13 12:50:50;;;;;;;1.93;1.50;;;36.20;33.00;;;;;;5085649;28;20208;-78
2022/08/13 12:53:17;;;;;;;1.93;1.37;;;36.40;33.10;;;;;;5083198;28;20618;-78
2022/08/13 12:55:45;;;;;;;1.87;1.57;;;36.30;32.60;;;;;;5072055;28;20222;-79
2022/08/13 12:58:15;;;;;;;1.93;1.40;;;35.60;32.10;;;;;;5079022;28;20205;-78
2022/08/13 13:00:42;;;;;;;3.13;1.70;;;34.90;32.60;;;;;;5071210;28;20202;-79
2022/08/13 13:03:09;;;;;;;2.00;1.90;;;34.30;33.60;;;;;;5072063;28;20220;-80
2022/08/13 13:05:36;;;;;;;2.27;1.57;;;34.40;33.80;;;;;;5088102;28;20222;-80
2022/08/13 13:08:18;;;;;;;2.03;1.43;;;34.70;33.40;;;;;;5074714;28;20984;-79
2022/08/13 13:10:45;;;;;;;1.20;1.10;;;34.90;32.70;;;;;;5077244;28;20717;-79
2022/08/13 13:13:13;;;;;;;1.40;1.30;;;35.20;33.10;;;;;;5073866;28;20744;-79
2022/08/13 13:15:40;;;;;;;1.53;1.43;;;35.30;31.90;;;;;;5070891;28;20655;-80
2022/08/13 13:18:11;;;;;;;2.20;1.63;;;35.80;32.50;;;;;;5075071;28;21404;-79
2022/08/13 13:20:41;;;;;;;1.63;1.53;;;36.30;31.40;;;;;;5079963;28;20205;-79
2022/08/13 13:23:11;;;;;;;7.83;1.47;;;36.50;30.00;;;;;;5078644;28;20198;-80